首页
METAR-TAF:

METAR-TAF

机场 :

奥拉迪亚, 罗马尼亚

纬度: 47-03N, 经度: 021-56E, 海拔: 135米

当前天气观测

该预报发布于16分钟前的17:30 UTC
静风
温度 0°C
湿度 93%
气压 1045 hPa
能見度: 6000
多云层高于3600英尺

METAR: LROD 201730Z 00000KT 6000 BKN036 00/M01 Q1045

时间: 19:46 (17:46 UTC)

预报

该预报发布于46分钟前的17:00 UTC
预报有效从20日的 18点(UTC)到 21日的 03点(UTC)
风速4节,风向多变
能見度: 7000
多云层高于3000英尺
成为
从 20日的 18点(UTC)到 20日的 20点(UTC)
能見度: 5000
轻雾
短暂存在
从 20日的 21点(UTC)到 21日的 03点(UTC)
能見度: 1500
多云层高于500英尺
多云层高于2000英尺
轻雾

TAF: LROD 201700Z 2018/2103 VRB04KT 7000 BKN030 BECMG 2018/2020 5000 BR TEMPO 2021/2103 1500 BR BKN005 BKN020

超过4000个机场的气象观测和天气预报(METAR&TAF报告)。

可查询的气象台以黄色和红色小点在地图上表示。

将鼠标移到小点上方,可查看气象台名称。

然后点击查看天气观测和预报。

如需切换地图:点击带黑十字的绿色按钮放大地图;点击带横线的绿色按钮缩小地图;或者点击绿色箭头查看邻近地区的地图。


METAR-TAF: